<?xml version="1.0" encoding="UTF-8" standalone="no" ?>
<gpx xmlns="http://www.topografix.com/GPX/1/1" xmlns:xsi="http://www.w3.org/2001/XMLSchema-instance" xsi:schemaLocation="http://www.topografix.com/GPX/1/1 http://www.topografix.com/GPX/1/1/gpx.xsd" version="1.1" creator="VisuGPX - https://www.visugpx.com">
  <metadata>
    <name>La Merdière avec les Amis</name>
    <desc><![CDATA[On s'arrête à l'épaule au pied de la raide pente de la tête  des Filons.]]></desc>
  </metadata>
  <trk>
    <name><![CDATA[La Merdière avec les Amis]]></name>
    <trkseg>
      <trkpt lat="45.02883" lon="5.97954">
        <ele>1463</ele>
        <time>2021-03-20T07:35:48+01:00</time>
      </trkpt>
      <trkpt lat="45.0291" lon="5.9797">
        <ele>1449</ele>
        <time>2021-03-20T07:35:51+01:00</time>
      </trkpt>
      <trkpt lat="45.02931" lon="5.9799">
        <ele>1452</ele>
        <time>2021-03-20T07:35:56+01:00</time>
      </trkpt>
      <trkpt lat="45.02903" lon="5.97997">
        <ele>1454</ele>
        <time>2021-03-20T07:36:47+01:00</time>
      </trkpt>
      <trkpt lat="45.02834" lon="5.98178">
        <ele>1544</ele>
        <time>2021-03-20T08:13:55+01:00</time>
      </trkpt>
      <trkpt lat="45.02826" lon="5.98191">
        <ele>1527</ele>
        <time>2021-03-20T08:14:03+01:00</time>
      </trkpt>
      <trkpt lat="45.02833" lon="5.98221">
        <ele>1538</ele>
        <time>2021-03-20T08:15:09+01:00</time>
      </trkpt>
      <trkpt lat="45.02843" lon="5.9825">
        <ele>1544</ele>
        <time>2021-03-20T08:15:51+01:00</time>
      </trkpt>
      <trkpt lat="45.0284" lon="5.98282">
        <ele>1545</ele>
        <time>2021-03-20T08:16:28+01:00</time>
      </trkpt>
      <trkpt lat="45.02827" lon="5.98308">
        <ele>1549</ele>
        <time>2021-03-20T08:17:06+01:00</time>
      </trkpt>
      <trkpt lat="45.02809" lon="5.98329">
        <ele>1557</ele>
        <time>2021-03-20T08:19:17+01:00</time>
      </trkpt>
      <trkpt lat="45.02795" lon="5.98354">
        <ele>1561</ele>
        <time>2021-03-20T08:20:02+01:00</time>
      </trkpt>
      <trkpt lat="45.02776" lon="5.98372">
        <ele>1563</ele>
        <time>2021-03-20T08:20:52+01:00</time>
      </trkpt>
      <trkpt lat="45.02753" lon="5.98376">
        <ele>1573</ele>
        <time>2021-03-20T08:21:39+01:00</time>
      </trkpt>
      <trkpt lat="45.02731" lon="5.98381">
        <ele>1581</ele>
        <time>2021-03-20T08:22:30+01:00</time>
      </trkpt>
      <trkpt lat="45.02722" lon="5.98352">
        <ele>1587</ele>
        <time>2021-03-20T08:23:51+01:00</time>
      </trkpt>
      <trkpt lat="45.02736" lon="5.98326">
        <ele>1591</ele>
        <time>2021-03-20T08:24:24+01:00</time>
      </trkpt>
      <trkpt lat="45.02732" lon="5.98295">
        <ele>1600</ele>
        <time>2021-03-20T08:25:02+01:00</time>
      </trkpt>
      <trkpt lat="45.0271" lon="5.983">
        <ele>1606</ele>
        <time>2021-03-20T08:26:05+01:00</time>
      </trkpt>
      <trkpt lat="45.02691" lon="5.98319">
        <ele>1608</ele>
        <time>2021-03-20T08:26:28+01:00</time>
      </trkpt>
      <trkpt lat="45.02669" lon="5.98327">
        <ele>1611</ele>
        <time>2021-03-20T08:27:09+01:00</time>
      </trkpt>
      <trkpt lat="45.02647" lon="5.98338">
        <ele>1618</ele>
        <time>2021-03-20T08:28:09+01:00</time>
      </trkpt>
      <trkpt lat="45.02625" lon="5.98343">
        <ele>1626</ele>
        <time>2021-03-20T08:28:56+01:00</time>
      </trkpt>
      <trkpt lat="45.02605" lon="5.98359">
        <ele>1632</ele>
        <time>2021-03-20T08:30:00+01:00</time>
      </trkpt>
      <trkpt lat="45.02594" lon="5.98387">
        <ele>1636</ele>
        <time>2021-03-20T08:33:31+01:00</time>
      </trkpt>
      <trkpt lat="45.02581" lon="5.98412">
        <ele>1639</ele>
        <time>2021-03-20T08:34:02+01:00</time>
      </trkpt>
      <trkpt lat="45.0256" lon="5.98425">
        <ele>1653</ele>
        <time>2021-03-20T08:34:46+01:00</time>
      </trkpt>
      <trkpt lat="45.02543" lon="5.98447">
        <ele>1659</ele>
        <time>2021-03-20T08:35:42+01:00</time>
      </trkpt>
      <trkpt lat="45.02524" lon="5.98465">
        <ele>1663</ele>
        <time>2021-03-20T08:36:39+01:00</time>
      </trkpt>
      <trkpt lat="45.02503" lon="5.98479">
        <ele>1669</ele>
        <time>2021-03-20T08:37:26+01:00</time>
      </trkpt>
      <trkpt lat="45.02495" lon="5.98508">
        <ele>1680</ele>
        <time>2021-03-20T08:38:23+01:00</time>
      </trkpt>
      <trkpt lat="45.02473" lon="5.98516">
        <ele>1684</ele>
        <time>2021-03-20T08:39:20+01:00</time>
      </trkpt>
      <trkpt lat="45.02451" lon="5.98521">
        <ele>1691</ele>
        <time>2021-03-20T08:40:35+01:00</time>
      </trkpt>
      <trkpt lat="45.0243" lon="5.98536">
        <ele>1712</ele>
        <time>2021-03-20T08:41:56+01:00</time>
      </trkpt>
      <trkpt lat="45.02412" lon="5.98556">
        <ele>1718</ele>
        <time>2021-03-20T08:43:15+01:00</time>
      </trkpt>
      <trkpt lat="45.02392" lon="5.98571">
        <ele>1725</ele>
        <time>2021-03-20T08:44:34+01:00</time>
      </trkpt>
      <trkpt lat="45.0237" lon="5.98578">
        <ele>1732</ele>
        <time>2021-03-20T08:45:41+01:00</time>
      </trkpt>
      <trkpt lat="45.02347" lon="5.98572">
        <ele>1744</ele>
        <time>2021-03-20T08:46:35+01:00</time>
      </trkpt>
      <trkpt lat="45.02326" lon="5.98582">
        <ele>1754</ele>
        <time>2021-03-20T08:47:21+01:00</time>
      </trkpt>
      <trkpt lat="45.02319" lon="5.98551">
        <ele>1757</ele>
        <time>2021-03-20T08:48:27+01:00</time>
      </trkpt>
      <trkpt lat="45.0233" lon="5.98524">
        <ele>1763</ele>
        <time>2021-03-20T08:49:26+01:00</time>
      </trkpt>
      <trkpt lat="45.02338" lon="5.98494">
        <ele>1770</ele>
        <time>2021-03-20T08:50:20+01:00</time>
      </trkpt>
      <trkpt lat="45.02318" lon="5.98478">
        <ele>1782</ele>
        <time>2021-03-20T08:55:21+01:00</time>
      </trkpt>
      <trkpt lat="45.02295" lon="5.9848">
        <ele>1787</ele>
        <time>2021-03-20T08:55:58+01:00</time>
      </trkpt>
      <trkpt lat="45.02272" lon="5.98486">
        <ele>1789</ele>
        <time>2021-03-20T08:56:35+01:00</time>
      </trkpt>
      <trkpt lat="45.0225" lon="5.98491">
        <ele>1795</ele>
        <time>2021-03-20T08:57:18+01:00</time>
      </trkpt>
      <trkpt lat="45.02247" lon="5.98524">
        <ele>1799</ele>
        <time>2021-03-20T08:58:21+01:00</time>
      </trkpt>
      <trkpt lat="45.0223" lon="5.98545">
        <ele>1810</ele>
        <time>2021-03-20T08:59:21+01:00</time>
      </trkpt>
      <trkpt lat="45.02208" lon="5.98534">
        <ele>1822</ele>
        <time>2021-03-20T09:05:36+01:00</time>
      </trkpt>
      <trkpt lat="45.02189" lon="5.98517">
        <ele>1828</ele>
        <time>2021-03-20T09:07:56+01:00</time>
      </trkpt>
      <trkpt lat="45.02172" lon="5.98495">
        <ele>1833</ele>
        <time>2021-03-20T09:08:51+01:00</time>
      </trkpt>
      <trkpt lat="45.02169" lon="5.98527">
        <ele>1842</ele>
        <time>2021-03-20T09:10:13+01:00</time>
      </trkpt>
      <trkpt lat="45.02167" lon="5.98558">
        <ele>1845</ele>
        <time>2021-03-20T09:10:57+01:00</time>
      </trkpt>
      <trkpt lat="45.02158" lon="5.98588">
        <ele>1856</ele>
        <time>2021-03-20T09:12:16+01:00</time>
      </trkpt>
      <trkpt lat="45.0214" lon="5.98568">
        <ele>1862</ele>
        <time>2021-03-20T09:12:58+01:00</time>
      </trkpt>
      <trkpt lat="45.02121" lon="5.98548">
        <ele>1869</ele>
        <time>2021-03-20T09:13:41+01:00</time>
      </trkpt>
      <trkpt lat="45.02099" lon="5.9855">
        <ele>1873</ele>
        <time>2021-03-20T09:14:27+01:00</time>
      </trkpt>
      <trkpt lat="45.02076" lon="5.98556">
        <ele>1874</ele>
        <time>2021-03-20T09:15:09+01:00</time>
      </trkpt>
      <trkpt lat="45.02053" lon="5.98549">
        <ele>1888</ele>
        <time>2021-03-20T09:16:07+01:00</time>
      </trkpt>
      <trkpt lat="45.02031" lon="5.98543">
        <ele>1893</ele>
        <time>2021-03-20T09:16:56+01:00</time>
      </trkpt>
      <trkpt lat="45.02009" lon="5.98549">
        <ele>1898</ele>
        <time>2021-03-20T09:17:44+01:00</time>
      </trkpt>
      <trkpt lat="45.01988" lon="5.98561">
        <ele>1904</ele>
        <time>2021-03-20T09:18:20+01:00</time>
      </trkpt>
      <trkpt lat="45.01973" lon="5.98536">
        <ele>1909</ele>
        <time>2021-03-20T09:19:44+01:00</time>
      </trkpt>
      <trkpt lat="45.01967" lon="5.98505">
        <ele>1919</ele>
        <time>2021-03-20T09:20:26+01:00</time>
      </trkpt>
      <trkpt lat="45.01945" lon="5.98495">
        <ele>1927</ele>
        <time>2021-03-20T09:21:34+01:00</time>
      </trkpt>
      <trkpt lat="45.01924" lon="5.98505">
        <ele>1935</ele>
        <time>2021-03-20T09:22:07+01:00</time>
      </trkpt>
      <trkpt lat="45.01901" lon="5.9851">
        <ele>1940</ele>
        <time>2021-03-20T09:34:23+01:00</time>
      </trkpt>
      <trkpt lat="45.01879" lon="5.9852">
        <ele>1942</ele>
        <time>2021-03-20T09:35:09+01:00</time>
      </trkpt>
      <trkpt lat="45.0186" lon="5.98538">
        <ele>1946</ele>
        <time>2021-03-20T09:36:03+01:00</time>
      </trkpt>
      <trkpt lat="45.01843" lon="5.98559">
        <ele>1952</ele>
        <time>2021-03-20T09:36:36+01:00</time>
      </trkpt>
      <trkpt lat="45.0182" lon="5.98562">
        <ele>1960</ele>
        <time>2021-03-20T09:37:39+01:00</time>
      </trkpt>
      <trkpt lat="45.01798" lon="5.98556">
        <ele>1965</ele>
        <time>2021-03-20T09:38:28+01:00</time>
      </trkpt>
      <trkpt lat="45.01776" lon="5.98547">
        <ele>1965</ele>
        <time>2021-03-20T09:39:24+01:00</time>
      </trkpt>
      <trkpt lat="45.01777" lon="5.98579">
        <ele>1973</ele>
        <time>2021-03-20T09:40:39+01:00</time>
      </trkpt>
      <trkpt lat="45.01774" lon="5.98611">
        <ele>1985</ele>
        <time>2021-03-20T09:42:58+01:00</time>
      </trkpt>
      <trkpt lat="45.01751" lon="5.98612">
        <ele>1993</ele>
        <time>2021-03-20T09:44:44+01:00</time>
      </trkpt>
      <trkpt lat="45.01746" lon="5.98644">
        <ele>2003</ele>
        <time>2021-03-20T09:45:36+01:00</time>
      </trkpt>
      <trkpt lat="45.01729" lon="5.98666">
        <ele>2009</ele>
        <time>2021-03-20T09:46:25+01:00</time>
      </trkpt>
      <trkpt lat="45.01717" lon="5.98693">
        <ele>2013</ele>
        <time>2021-03-20T09:47:28+01:00</time>
      </trkpt>
      <trkpt lat="45.01699" lon="5.98715">
        <ele>2025</ele>
        <time>2021-03-20T09:48:21+01:00</time>
      </trkpt>
      <trkpt lat="45.01682" lon="5.98736">
        <ele>2030</ele>
        <time>2021-03-20T09:49:08+01:00</time>
      </trkpt>
      <trkpt lat="45.01664" lon="5.98754">
        <ele>2032</ele>
        <time>2021-03-20T09:50:05+01:00</time>
      </trkpt>
      <trkpt lat="45.01642" lon="5.98763">
        <ele>2038</ele>
        <time>2021-03-20T09:50:42+01:00</time>
      </trkpt>
      <trkpt lat="45.01623" lon="5.98781">
        <ele>2045</ele>
        <time>2021-03-20T09:51:25+01:00</time>
      </trkpt>
      <trkpt lat="45.016" lon="5.98788">
        <ele>2049</ele>
        <time>2021-03-20T09:52:10+01:00</time>
      </trkpt>
      <trkpt lat="45.01578" lon="5.98786">
        <ele>2050</ele>
        <time>2021-03-20T09:52:50+01:00</time>
      </trkpt>
      <trkpt lat="45.01555" lon="5.98779">
        <ele>2058</ele>
        <time>2021-03-20T09:53:30+01:00</time>
      </trkpt>
      <trkpt lat="45.01533" lon="5.98771">
        <ele>2057</ele>
        <time>2021-03-20T09:54:06+01:00</time>
      </trkpt>
      <trkpt lat="45.01527" lon="5.98801">
        <ele>2066</ele>
        <time>2021-03-20T09:55:54+01:00</time>
      </trkpt>
      <trkpt lat="45.01529" lon="5.98833">
        <ele>2067</ele>
        <time>2021-03-20T09:56:48+01:00</time>
      </trkpt>
      <trkpt lat="45.01531" lon="5.98865">
        <ele>2077</ele>
        <time>2021-03-20T09:58:14+01:00</time>
      </trkpt>
      <trkpt lat="45.01531" lon="5.98897">
        <ele>2088</ele>
        <time>2021-03-20T09:59:35+01:00</time>
      </trkpt>
      <trkpt lat="45.01519" lon="5.98924">
        <ele>2099</ele>
        <time>2021-03-20T10:00:39+01:00</time>
      </trkpt>
      <trkpt lat="45.01501" lon="5.98944">
        <ele>2104</ele>
        <time>2021-03-20T10:03:18+01:00</time>
      </trkpt>
      <trkpt lat="45.01481" lon="5.98961">
        <ele>2112</ele>
        <time>2021-03-20T10:03:56+01:00</time>
      </trkpt>
      <trkpt lat="45.0146" lon="5.98974">
        <ele>2114</ele>
        <time>2021-03-20T10:04:38+01:00</time>
      </trkpt>
      <trkpt lat="45.01483" lon="5.98972">
        <ele>2114</ele>
        <time>2021-03-20T10:24:57+01:00</time>
      </trkpt>
      <trkpt lat="45.01507" lon="5.98958">
        <ele>2110</ele>
        <time>2021-03-20T10:26:15+01:00</time>
      </trkpt>
      <trkpt lat="45.01519" lon="5.98929">
        <ele>2103</ele>
        <time>2021-03-20T10:26:19+01:00</time>
      </trkpt>
      <trkpt lat="45.0154" lon="5.98902">
        <ele>2092</ele>
        <time>2021-03-20T10:26:24+01:00</time>
      </trkpt>
      <trkpt lat="45.01559" lon="5.98883">
        <ele>2090</ele>
        <time>2021-03-20T10:26:28+01:00</time>
      </trkpt>
      <trkpt lat="45.01582" lon="5.98867">
        <ele>2088</ele>
        <time>2021-03-20T10:26:34+01:00</time>
      </trkpt>
      <trkpt lat="45.01598" lon="5.98834">
        <ele>2086</ele>
        <time>2021-03-20T10:26:38+01:00</time>
      </trkpt>
      <trkpt lat="45.01611" lon="5.98806">
        <ele>2082</ele>
        <time>2021-03-20T10:26:41+01:00</time>
      </trkpt>
      <trkpt lat="45.01632" lon="5.98788">
        <ele>2068</ele>
        <time>2021-03-20T10:26:44+01:00</time>
      </trkpt>
      <trkpt lat="45.01653" lon="5.98771">
        <ele>2039</ele>
        <time>2021-03-20T10:30:32+01:00</time>
      </trkpt>
      <trkpt lat="45.01676" lon="5.98754">
        <ele>2032</ele>
        <time>2021-03-20T10:30:38+01:00</time>
      </trkpt>
      <trkpt lat="45.01695" lon="5.98733">
        <ele>2030</ele>
        <time>2021-03-20T10:30:43+01:00</time>
      </trkpt>
      <trkpt lat="45.0172" lon="5.98721">
        <ele>2027</ele>
        <time>2021-03-20T10:30:54+01:00</time>
      </trkpt>
      <trkpt lat="45.01739" lon="5.98695">
        <ele>2014</ele>
        <time>2021-03-20T10:30:59+01:00</time>
      </trkpt>
      <trkpt lat="45.01751" lon="5.98666">
        <ele>2011</ele>
        <time>2021-03-20T10:31:04+01:00</time>
      </trkpt>
      <trkpt lat="45.01772" lon="5.98648">
        <ele>1998</ele>
        <time>2021-03-20T10:32:01+01:00</time>
      </trkpt>
      <trkpt lat="45.01789" lon="5.98623">
        <ele>1987</ele>
        <time>2021-03-20T10:32:11+01:00</time>
      </trkpt>
      <trkpt lat="45.01807" lon="5.98601">
        <ele>1982</ele>
        <time>2021-03-20T10:32:16+01:00</time>
      </trkpt>
      <trkpt lat="45.01829" lon="5.98582">
        <ele>1962</ele>
        <time>2021-03-20T10:32:21+01:00</time>
      </trkpt>
      <trkpt lat="45.01852" lon="5.9857">
        <ele>1959</ele>
        <time>2021-03-20T10:32:25+01:00</time>
      </trkpt>
      <trkpt lat="45.01876" lon="5.98559">
        <ele>1955</ele>
        <time>2021-03-20T10:32:29+01:00</time>
      </trkpt>
      <trkpt lat="45.01902" lon="5.98548">
        <ele>1950</ele>
        <time>2021-03-20T10:32:34+01:00</time>
      </trkpt>
      <trkpt lat="45.01918" lon="5.98571">
        <ele>1932</ele>
        <time>2021-03-20T10:32:50+01:00</time>
      </trkpt>
      <trkpt lat="45.01937" lon="5.98589">
        <ele>1930</ele>
        <time>2021-03-20T10:33:57+01:00</time>
      </trkpt>
      <trkpt lat="45.01961" lon="5.9859">
        <ele>1916</ele>
        <time>2021-03-20T10:34:03+01:00</time>
      </trkpt>
      <trkpt lat="45.01978" lon="5.98612">
        <ele>1909</ele>
        <time>2021-03-20T10:34:09+01:00</time>
      </trkpt>
      <trkpt lat="45.01995" lon="5.98636">
        <ele>1907</ele>
        <time>2021-03-20T10:34:17+01:00</time>
      </trkpt>
      <trkpt lat="45.02023" lon="5.98641">
        <ele>1902</ele>
        <time>2021-03-20T10:34:24+01:00</time>
      </trkpt>
      <trkpt lat="45.02048" lon="5.98642">
        <ele>1900</ele>
        <time>2021-03-20T10:34:29+01:00</time>
      </trkpt>
      <trkpt lat="45.02071" lon="5.98648">
        <ele>1898</ele>
        <time>2021-03-20T10:34:33+01:00</time>
      </trkpt>
      <trkpt lat="45.02086" lon="5.98625">
        <ele>1886</ele>
        <time>2021-03-20T10:34:39+01:00</time>
      </trkpt>
      <trkpt lat="45.0211" lon="5.98609">
        <ele>1865</ele>
        <time>2021-03-20T10:39:32+01:00</time>
      </trkpt>
      <trkpt lat="45.02133" lon="5.98599">
        <ele>1865</ele>
        <time>2021-03-20T10:39:38+01:00</time>
      </trkpt>
      <trkpt lat="45.02156" lon="5.98608">
        <ele>1858</ele>
        <time>2021-03-20T10:39:45+01:00</time>
      </trkpt>
      <trkpt lat="45.02169" lon="5.98635">
        <ele>1845</ele>
        <time>2021-03-20T10:40:34+01:00</time>
      </trkpt>
      <trkpt lat="45.02191" lon="5.98645">
        <ele>1836</ele>
        <time>2021-03-20T10:41:30+01:00</time>
      </trkpt>
      <trkpt lat="45.02209" lon="5.98623">
        <ele>1814</ele>
        <time>2021-03-20T10:42:06+01:00</time>
      </trkpt>
      <trkpt lat="45.0223" lon="5.98609">
        <ele>1803</ele>
        <time>2021-03-20T10:42:29+01:00</time>
      </trkpt>
      <trkpt lat="45.02254" lon="5.98615">
        <ele>1790</ele>
        <time>2021-03-20T10:42:43+01:00</time>
      </trkpt>
      <trkpt lat="45.02276" lon="5.98607">
        <ele>1772</ele>
        <time>2021-03-20T10:42:55+01:00</time>
      </trkpt>
      <trkpt lat="45.023" lon="5.98608">
        <ele>1764</ele>
        <time>2021-03-20T10:43:08+01:00</time>
      </trkpt>
      <trkpt lat="45.02327" lon="5.98604">
        <ele>1749</ele>
        <time>2021-03-20T10:43:14+01:00</time>
      </trkpt>
      <trkpt lat="45.0235" lon="5.98602">
        <ele>1739</ele>
        <time>2021-03-20T10:45:01+01:00</time>
      </trkpt>
      <trkpt lat="45.02373" lon="5.98591">
        <ele>1729</ele>
        <time>2021-03-20T10:45:07+01:00</time>
      </trkpt>
      <trkpt lat="45.02398" lon="5.98578">
        <ele>1722</ele>
        <time>2021-03-20T10:45:13+01:00</time>
      </trkpt>
      <trkpt lat="45.02422" lon="5.98561">
        <ele>1711</ele>
        <time>2021-03-20T10:45:18+01:00</time>
      </trkpt>
      <trkpt lat="45.02443" lon="5.98544">
        <ele>1706</ele>
        <time>2021-03-20T10:45:22+01:00</time>
      </trkpt>
      <trkpt lat="45.02465" lon="5.98535">
        <ele>1694</ele>
        <time>2021-03-20T10:47:18+01:00</time>
      </trkpt>
      <trkpt lat="45.02491" lon="5.98525">
        <ele>1682</ele>
        <time>2021-03-20T10:47:24+01:00</time>
      </trkpt>
      <trkpt lat="45.02509" lon="5.98506">
        <ele>1668</ele>
        <time>2021-03-20T10:48:08+01:00</time>
      </trkpt>
      <trkpt lat="45.02534" lon="5.98497">
        <ele>1619</ele>
        <time>2021-03-20T10:48:52+01:00</time>
      </trkpt>
      <trkpt lat="45.02553" lon="5.98481">
        <ele>1648</ele>
        <time>2021-03-20T10:49:53+01:00</time>
      </trkpt>
      <trkpt lat="45.02577" lon="5.98477">
        <ele>1641</ele>
        <time>2021-03-20T10:50:25+01:00</time>
      </trkpt>
      <trkpt lat="45.026" lon="5.98472">
        <ele>1632</ele>
        <time>2021-03-20T10:50:38+01:00</time>
      </trkpt>
      <trkpt lat="45.02622" lon="5.98462">
        <ele>1622</ele>
        <time>2021-03-20T10:50:55+01:00</time>
      </trkpt>
      <trkpt lat="45.02644" lon="5.98447">
        <ele>1616</ele>
        <time>2021-03-20T10:51:03+01:00</time>
      </trkpt>
      <trkpt lat="45.02666" lon="5.98434">
        <ele>1599</ele>
        <time>2021-03-20T10:51:09+01:00</time>
      </trkpt>
      <trkpt lat="45.02687" lon="5.9842">
        <ele>1598</ele>
        <time>2021-03-20T10:51:23+01:00</time>
      </trkpt>
      <trkpt lat="45.02711" lon="5.9842">
        <ele>1588</ele>
        <time>2021-03-20T10:52:42+01:00</time>
      </trkpt>
      <trkpt lat="45.02731" lon="5.98405">
        <ele>1577</ele>
        <time>2021-03-20T10:52:48+01:00</time>
      </trkpt>
      <trkpt lat="45.02756" lon="5.98387">
        <ele>1573</ele>
        <time>2021-03-20T10:52:53+01:00</time>
      </trkpt>
      <trkpt lat="45.02779" lon="5.98378">
        <ele>1563</ele>
        <time>2021-03-20T10:52:58+01:00</time>
      </trkpt>
      <trkpt lat="45.02804" lon="5.98368">
        <ele>1557</ele>
        <time>2021-03-20T10:53:18+01:00</time>
      </trkpt>
      <trkpt lat="45.02825" lon="5.98354">
        <ele>1556</ele>
        <time>2021-03-20T10:53:23+01:00</time>
      </trkpt>
      <trkpt lat="45.02839" lon="5.98328">
        <ele>1547</ele>
        <time>2021-03-20T10:53:38+01:00</time>
      </trkpt>
      <trkpt lat="45.0286" lon="5.98342">
        <ele>1531</ele>
        <time>2021-03-20T10:54:53+01:00</time>
      </trkpt>
      <trkpt lat="45.02879" lon="5.9832">
        <ele>1527</ele>
        <time>2021-03-20T10:54:58+01:00</time>
      </trkpt>
      <trkpt lat="45.02896" lon="5.98301">
        <ele>1527</ele>
        <time>2021-03-20T10:55:03+01:00</time>
      </trkpt>
      <trkpt lat="45.02914" lon="5.98275">
        <ele>1524</ele>
        <time>2021-03-20T10:55:08+01:00</time>
      </trkpt>
      <trkpt lat="45.02933" lon="5.98255">
        <ele>1521</ele>
        <time>2021-03-20T10:55:13+01:00</time>
      </trkpt>
      <trkpt lat="45.02953" lon="5.98239">
        <ele>1514</ele>
        <time>2021-03-20T10:55:20+01:00</time>
      </trkpt>
      <trkpt lat="45.02971" lon="5.9822">
        <ele>1501</ele>
        <time>2021-03-20T10:56:45+01:00</time>
      </trkpt>
      <trkpt lat="45.02993" lon="5.9821">
        <ele>1494</ele>
        <time>2021-03-20T10:59:01+01:00</time>
      </trkpt>
      <trkpt lat="45.03013" lon="5.98195">
        <ele>1487</ele>
        <time>2021-03-20T11:00:26+01:00</time>
      </trkpt>
      <trkpt lat="45.03024" lon="5.98167">
        <ele>1474</ele>
        <time>2021-03-20T11:02:51+01:00</time>
      </trkpt>
      <trkpt lat="45.03007" lon="5.98145">
        <ele>1473</ele>
        <time>2021-03-20T11:03:02+01:00</time>
      </trkpt>
      <trkpt lat="45.02992" lon="5.98119">
        <ele>1465</ele>
        <time>2021-03-20T11:03:06+01:00</time>
      </trkpt>
      <trkpt lat="45.02976" lon="5.98093">
        <ele>1457</ele>
        <time>2021-03-20T11:03:16+01:00</time>
      </trkpt>
      <trkpt lat="45.02963" lon="5.98067">
        <ele>1453</ele>
        <time>2021-03-20T11:03:31+01:00</time>
      </trkpt>
      <trkpt lat="45.02946" lon="5.98045">
        <ele>1448</ele>
        <time>2021-03-20T11:05:14+01:00</time>
      </trkpt>
      <trkpt lat="45.0295" lon="5.98014">
        <ele>1452</ele>
        <time>2021-03-20T11:07:05+01:00</time>
      </trkpt>
      <trkpt lat="45.02929" lon="5.98003">
        <ele>1454</ele>
        <time>2021-03-20T11:08:37+01:00</time>
      </trkpt>
    </trkseg>
  </trk>
</gpx>